Aviation Digital Data Service (ADDS)

Output produced by METARs form (1344 UTC 20 August 2017)
found at http://www.aviationweather.gov/adds/metars/
 
METAR text: KGYI 201335Z AUTO 19008KT 10SM CLR 28/22 A3001 RMK AO2 T02770222
Conditions at: KGYI (SHERMAN/DENISON , TX, US) observed 1335 UTC 20 August 2017
Temperature: 27.7°C (82°F)
Dewpoint: 22.2°C (72°F) [RH = 72%]
Pressure (altimeter): 30.01 inches Hg (1016.3 mb)
Winds: from the S (190 degrees) at 9 MPH (8 knots; 4.2 m/s)
Visibility: 10 or more miles (16+ km)
Ceiling: at least 12,000 feet AGL
Clouds: sky clear below 12,000 feet AGL
Weather: automated observation with no human augmentation;
there may or may not be significant weather present at this time